createdAt,value
2019-02-10T00:04:30.497Z,100.00
2019-02-10T00:09:41.699Z,100.00
2019-02-10T00:14:46.321Z,100.00
2019-02-10T00:19:51.313Z,100.00
2019-02-10T00:24:55.954Z,100.00
2019-02-10T00:30:01.815Z,100.00
2019-02-10T00:35:11.281Z,100.00
2019-02-10T00:40:14.031Z,100.00
2019-02-10T00:45:35.717Z,100.00
2019-02-10T00:50:55.244Z,100.00
2019-02-10T00:55:55.467Z,100.00
2019-02-10T01:01:02.445Z,98.82
2019-02-10T01:06:04.511Z,98.52
2019-02-10T01:11:13.358Z,97.05
2019-02-10T01:16:18.147Z,94.24
2019-02-10T01:21:23.974Z,90.48
2019-02-10T01:26:30.199Z,92.08
2019-02-10T01:31:45.693Z,90.66
2019-02-10T01:36:54.447Z,88.29
2019-02-10T01:42:06.928Z,89.00
2019-02-10T01:47:20.854Z,91.48
2019-02-10T01:53:38.840Z,91.09
2019-02-10T01:59:40.368Z,93.78
2019-02-10T02:23:45.061Z,93.07
2019-02-10T02:29:43.079Z,94.54
2019-02-10T02:34:54.442Z,94.60
2019-02-10T02:40:02.871Z,95.90
2019-02-10T02:45:02.292Z,94.99
2019-02-10T02:50:01.654Z,94.83
2019-02-10T02:55:09.043Z,94.57
2019-02-10T03:00:22.771Z,92.75
2019-02-10T03:05:39.800Z,91.96
2019-02-10T03:10:53.023Z,90.28
2019-02-10T03:16:13.792Z,91.34
2019-02-10T03:21:30.374Z,91.69
2019-02-10T03:26:38.412Z,92.10
2019-02-10T03:31:47.590Z,91.87
2019-02-10T03:37:04.429Z,89.36
2019-02-10T03:42:20.018Z,88.52
2019-02-10T03:47:58.807Z,89.59
2019-02-10T03:53:15.576Z,88.26
2019-02-10T03:58:44.254Z,90.94
2019-02-10T04:03:56.153Z,90.85
2019-02-10T04:09:01.383Z,93.49
2019-02-10T04:14:08.533Z,91.69
2019-02-10T04:19:07.843Z,94.48
2019-02-10T04:29:46.156Z,94.22
2019-02-10T04:35:41.252Z,96.94
2019-02-10T04:40:44.552Z,98.29
2019-02-10T04:45:40.149Z,98.72
2019-02-10T04:50:42.688Z,100.00
2019-02-10T04:56:31.139Z,100.00
2019-02-10T05:02:08.354Z,100.00
2019-02-10T05:07:27.742Z,100.00
2019-02-10T05:12:52.697Z,100.00
2019-02-10T05:18:54.233Z,100.00
2019-02-10T05:24:05.020Z,100.00
2019-02-10T05:30:08.069Z,100.00
2019-02-10T05:35:50.186Z,100.00
2019-02-10T05:41:26.383Z,100.00
2019-02-10T05:47:36.093Z,100.00
2019-02-10T05:53:11.697Z,100.00
2019-02-10T06:04:24.725Z,100.00
2019-02-10T06:09:37.050Z,100.00
2019-02-10T06:15:12.216Z,100.00
2019-02-10T06:20:51.483Z,100.00
2019-02-10T06:32:13.753Z,100.00
2019-02-10T06:37:07.475Z,100.00
2019-02-10T06:42:21.306Z,100.00
2019-02-10T06:48:23.674Z,100.00
2019-02-10T06:54:47.450Z,100.00
2019-02-10T07:07:06.079Z,100.00
2019-02-10T07:13:19.264Z,100.00
2019-02-10T07:19:30.276Z,100.00
2019-02-10T07:26:03.973Z,96.47
2019-02-10T07:32:09.768Z,87.71
2019-02-10T07:51:21.638Z,94.49
2019-02-10T07:58:05.581Z,93.15
2019-02-10T08:17:15.684Z,90.91
2019-02-10T08:22:18.828Z,89.87
2019-02-10T08:28:35.535Z,87.55
2019-02-10T08:35:18.375Z,88.28
2019-02-10T08:41:07.467Z,85.63
2019-02-10T08:47:11.744Z,90.17
2019-02-10T08:52:52.194Z,89.25
2019-02-10T08:57:52.472Z,88.10
2019-02-10T09:03:19.682Z,91.02
2019-02-10T09:08:29.461Z,90.76
2019-02-10T09:25:49.735Z,87.39
2019-02-10T09:30:53.429Z,87.22
2019-02-10T09:35:54.677Z,87.30
2019-02-10T09:40:58.016Z,87.86
2019-02-10T09:46:20.792Z,84.09
2019-02-10T09:52:07.787Z,78.46
2019-02-10T10:03:03.073Z,74.89
2019-02-10T10:08:32.228Z,77.31
2019-02-10T10:13:45.037Z,72.51
2019-02-10T10:19:33.251Z,69.37
2019-02-10T10:25:48.719Z,65.61
2019-02-10T10:32:05.765Z,65.90
2019-02-10T10:37:19.566Z,62.01
2019-02-10T10:55:37.612Z,70.09
2019-02-10T11:01:39.181Z,71.59
2019-02-10T11:07:35.404Z,61.61
2019-02-10T11:12:58.133Z,60.39
2019-02-10T11:18:42.311Z,61.57
2019-02-10T11:24:09.880Z,67.01
2019-02-10T11:29:31.925Z,64.85
2019-02-10T11:35:40.034Z,66.07
2019-02-10T11:40:32.350Z,63.75
2019-02-10T11:45:52.534Z,60.13
2019-02-10T11:51:57.236Z,60.26
2019-02-10T11:57:33.014Z,60.49
2019-02-10T12:03:45.345Z,57.59
2019-02-10T12:08:58.705Z,56.77
2019-02-10T12:14:59.049Z,57.64
2019-02-10T12:20:32.110Z,60.54
2019-02-10T12:26:04.257Z,58.49
2019-02-10T12:31:13.334Z,59.71
2019-02-10T12:36:27.258Z,59.34
2019-02-10T12:41:35.352Z,60.92
2019-02-10T12:46:54.880Z,62.45
2019-02-10T12:52:06.562Z,60.94
2019-02-10T12:58:06.773Z,64.93
2019-02-10T13:03:33.415Z,64.79
2019-02-10T13:21:34.121Z,67.34
2019-02-10T13:27:15.249Z,63.51
2019-02-10T13:32:35.784Z,63.72
2019-02-10T13:37:42.763Z,61.08
2019-02-10T13:42:51.705Z,60.20
2019-02-10T13:47:57.728Z,60.34
2019-02-10T13:59:10.033Z,62.19
2019-02-10T14:04:11.184Z,63.20
2019-02-10T14:09:09.686Z,62.13
2019-02-10T14:14:07.396Z,62.71
2019-02-10T14:19:40.942Z,62.37
2019-02-10T14:24:37.776Z,66.79
2019-02-10T14:29:37.060Z,63.83
2019-02-10T14:34:38.569Z,66.09
2019-02-10T15:04:34.225Z,68.35
2019-02-10T15:10:32.962Z,70.03
2019-02-10T15:15:37.824Z,69.21
2019-02-10T15:53:35.734Z,83.86
2019-02-10T15:59:38.153Z,87.92
2019-02-10T16:21:48.054Z,94.69
2019-02-10T16:26:50.387Z,100.00
2019-02-10T16:31:57.198Z,100.00
2019-02-10T16:36:54.813Z,100.00
2019-02-10T16:42:08.989Z,100.00
2019-02-10T16:47:26.317Z,100.00
2019-02-10T16:52:24.097Z,100.00
2019-02-10T16:57:32.230Z,100.00
2019-02-10T17:02:28.970Z,100.00
2019-02-10T17:07:25.611Z,100.00
2019-02-10T17:12:23.053Z,100.00
2019-02-10T17:17:40.278Z,100.00
2019-02-10T17:22:38.539Z,100.00
2019-02-10T17:27:37.000Z,100.00
2019-02-10T17:32:39.158Z,100.00
2019-02-10T17:37:39.434Z,100.00
2019-02-10T17:42:50.011Z,100.00
2019-02-10T17:47:48.195Z,100.00
2019-02-10T17:52:48.696Z,100.00
2019-02-10T17:57:47.948Z,100.00
2019-02-10T18:02:44.290Z,100.00
2019-02-10T18:07:54.063Z,100.00
2019-02-10T18:12:59.580Z,100.00
2019-02-10T18:18:10.799Z,100.00
2019-02-10T18:23:26.936Z,100.00
2019-02-10T18:28:54.075Z,100.00
2019-02-10T18:34:08.950Z,100.00
2019-02-10T18:39:23.304Z,100.00
2019-02-10T18:44:38.249Z,100.00
2019-02-10T18:49:53.469Z,100.00
2019-02-10T18:54:57.517Z,100.00
2019-02-10T19:01:29.307Z,100.00
2019-02-10T19:06:19.369Z,100.00
2019-02-10T19:11:35.548Z,100.00
2019-02-10T19:16:50.964Z,100.00
2019-02-10T19:21:58.161Z,100.00
2019-02-10T19:27:18.055Z,100.00
2019-02-10T19:32:58.048Z,100.00
2019-02-10T19:38:18.340Z,100.00
2019-02-10T19:43:36.711Z,100.00
2019-02-10T19:48:51.270Z,100.00
2019-02-10T19:54:26.614Z,100.00
2019-02-10T19:59:47.511Z,100.00
2019-02-10T20:05:10.352Z,100.00
2019-02-10T20:10:24.355Z,100.00
2019-02-10T20:15:49.126Z,100.00
2019-02-10T20:21:07.063Z,100.00
2019-02-10T20:26:32.469Z,100.00
2019-02-10T20:31:55.675Z,100.00
2019-02-10T20:37:04.776Z,100.00
2019-02-10T20:42:12.600Z,100.00
2019-02-10T20:47:23.692Z,100.00
2019-02-10T20:52:46.345Z,100.00
2019-02-10T20:58:14.471Z,100.00
2019-02-10T21:03:38.601Z,100.00
2019-02-10T21:09:15.881Z,98.57
2019-02-10T21:14:34.137Z,99.45
2019-02-10T21:20:02.136Z,98.56
2019-02-10T21:25:15.279Z,100.00
2019-02-10T21:30:30.804Z,99.78
2019-02-10T21:35:49.925Z,100.00
2019-02-10T21:41:25.811Z,100.00
2019-02-10T21:46:31.667Z,100.00
2019-02-10T21:51:27.616Z,100.00
2019-02-10T21:56:23.708Z,100.00
2019-02-10T22:01:22.508Z,100.00
2019-02-10T22:06:41.962Z,100.00
2019-02-10T22:11:39.831Z,100.00
2019-02-10T22:16:38.304Z,100.00
2019-02-10T22:21:37.372Z,99.50
2019-02-10T22:26:33.413Z,100.00
2019-02-10T22:31:29.624Z,100.00
2019-02-10T22:36:25.661Z,100.00
2019-02-10T22:41:21.752Z,100.00
2019-02-10T22:46:17.678Z,100.00
2019-02-10T22:51:13.847Z,100.00
2019-02-10T22:56:09.808Z,100.00
2019-02-10T23:01:08.245Z,100.00
2019-02-10T23:06:04.113Z,100.00
2019-02-10T23:11:11.563Z,100.00
2019-02-10T23:16:12.572Z,100.00
2019-02-10T23:21:14.616Z,100.00
2019-02-10T23:26:11.988Z,100.00
2019-02-10T23:31:09.228Z,100.00
2019-02-10T23:36:07.672Z,100.00
2019-02-10T23:41:10.522Z,100.00
2019-02-10T23:46:09.816Z,100.00
2019-02-10T23:51:08.253Z,100.00
2019-02-10T23:56:04.042Z,100.00
